createdAt,value
2022-08-26T00:01:53.742Z,100.00
2022-08-26T00:04:23.400Z,100.00
2022-08-26T00:06:51.041Z,100.00
2022-08-26T00:09:18.619Z,100.00
2022-08-26T00:11:47.184Z,100.00
2022-08-26T00:14:16.138Z,100.00
2022-08-26T00:16:47.555Z,100.00
2022-08-26T00:19:17.832Z,100.00
2022-08-26T00:21:45.808Z,100.00
2022-08-26T00:24:13.546Z,100.00
2022-08-26T00:26:41.816Z,100.00
2022-08-26T00:29:10.756Z,100.00
2022-08-26T00:31:38.650Z,100.00
2022-08-26T00:34:11.212Z,100.00
2022-08-26T00:36:40.752Z,100.00
2022-08-26T00:39:08.810Z,100.00
2022-08-26T00:41:36.945Z,100.00
2022-08-26T00:44:05.533Z,100.00
2022-08-26T00:46:36.701Z,100.00
2022-08-26T00:49:11.617Z,100.00
2022-08-26T00:51:46.794Z,100.00
2022-08-26T00:54:15.701Z,100.00
2022-08-26T00:56:49.441Z,100.00
2022-08-26T00:59:18.391Z,100.00
2022-08-26T01:01:46.300Z,100.00
2022-08-26T01:04:21.847Z,100.00
2022-08-26T01:06:51.044Z,100.00
2022-08-26T01:09:20.243Z,100.00
2022-08-26T01:11:50.511Z,100.00
2022-08-26T01:14:20.130Z,100.00
2022-08-26T01:16:48.780Z,100.00
2022-08-26T01:19:22.553Z,100.00
2022-08-26T01:21:56.481Z,100.00
2022-08-26T01:24:28.493Z,100.00
2022-08-26T01:26:58.717Z,100.00
2022-08-26T01:29:27.237Z,100.00
2022-08-26T01:31:57.278Z,100.00
2022-08-26T01:34:28.601Z,100.00
2022-08-26T01:37:06.937Z,100.00
2022-08-26T01:39:37.844Z,100.00
2022-08-26T01:42:10.368Z,100.00
2022-08-26T01:44:44.886Z,100.00
2022-08-26T01:47:14.384Z,100.00
2022-08-26T01:49:43.991Z,100.00
2022-08-26T01:52:16.668Z,100.00
2022-08-26T01:54:46.310Z,100.00
2022-08-26T01:57:19.406Z,100.00
2022-08-26T01:59:47.858Z,100.00
2022-08-26T02:02:15.910Z,100.00
2022-08-26T02:04:48.573Z,100.00
2022-08-26T02:07:20.397Z,100.00
2022-08-26T02:09:50.477Z,100.00
2022-08-26T02:12:20.564Z,100.00
2022-08-26T02:14:53.183Z,100.00
2022-08-26T02:17:25.531Z,100.00
2022-08-26T02:19:53.821Z,100.00
2022-08-26T02:22:24.658Z,100.00
2022-08-26T02:24:56.830Z,100.00
2022-08-26T02:27:32.469Z,100.00
2022-08-26T02:30:03.933Z,100.00
2022-08-26T02:32:32.836Z,100.00
2022-08-26T02:35:00.501Z,100.00
2022-08-26T02:37:30.159Z,100.00
2022-08-26T02:39:59.341Z,100.00
2022-08-26T02:42:26.887Z,100.00
2022-08-26T02:44:54.446Z,100.00
2022-08-26T02:47:24.763Z,100.00
2022-08-26T02:49:53.132Z,100.00
2022-08-26T02:52:21.611Z,100.00
2022-08-26T02:54:49.596Z,100.00
2022-08-26T02:57:19.487Z,100.00
2022-08-26T02:59:49.949Z,100.00
2022-08-26T03:02:17.608Z,100.00
2022-08-26T03:04:57.309Z,100.00
2022-08-26T03:07:25.777Z,100.00
2022-08-26T03:09:53.519Z,100.00
2022-08-26T03:12:22.409Z,100.00
2022-08-26T03:14:49.931Z,100.00
2022-08-26T03:17:17.522Z,100.00
2022-08-26T03:19:45.075Z,100.00
2022-08-26T03:22:14.645Z,100.00
2022-08-26T03:24:46.119Z,100.00
2022-08-26T03:27:14.470Z,100.00
2022-08-26T03:30:01.104Z,100.00
2022-08-26T03:32:28.901Z,100.00
2022-08-26T03:34:57.505Z,100.00
2022-08-26T03:37:25.845Z,100.00
2022-08-26T03:39:53.563Z,100.00
2022-08-26T03:42:22.075Z,100.00
2022-08-26T03:44:51.481Z,100.00
2022-08-26T03:47:19.043Z,100.00
2022-08-26T03:49:46.578Z,100.00
2022-08-26T03:52:14.064Z,100.00
2022-08-26T03:54:41.908Z,100.00
2022-08-26T03:57:11.054Z,100.00
2022-08-26T03:59:38.569Z,100.00
2022-08-26T04:02:11.589Z,100.00
2022-08-26T04:04:39.757Z,100.00
2022-08-26T04:07:07.747Z,100.00
2022-08-26T04:09:35.649Z,100.00
2022-08-26T04:12:03.915Z,100.00
2022-08-26T04:14:32.721Z,100.00
2022-08-26T04:17:00.321Z,100.00
2022-08-26T04:19:29.201Z,100.00
2022-08-26T04:21:56.791Z,100.00
2022-08-26T04:24:27.863Z,100.00
2022-08-26T04:26:56.458Z,100.00
2022-08-26T04:29:27.494Z,100.00
2022-08-26T04:31:56.439Z,100.00
2022-08-26T04:34:25.298Z,100.00
2022-08-26T04:36:57.777Z,100.00
2022-08-26T04:39:25.474Z,100.00
2022-08-26T04:41:55.567Z,100.00
2022-08-26T04:44:27.786Z,100.00
2022-08-26T04:46:55.834Z,100.00
2022-08-26T04:49:23.668Z,100.00
2022-08-26T04:51:54.717Z,100.00
2022-08-26T04:54:23.823Z,100.00
2022-08-26T04:56:53.091Z,100.00
2022-08-26T04:59:20.607Z,100.00
2022-08-26T05:01:52.494Z,100.00
2022-08-26T05:04:21.967Z,100.00
2022-08-26T05:06:50.670Z,100.00
2022-08-26T05:09:19.841Z,100.00
2022-08-26T05:11:52.143Z,100.00
2022-08-26T05:14:20.541Z,100.00
2022-08-26T05:16:48.148Z,100.00
2022-08-26T05:19:19.130Z,100.00
2022-08-26T05:21:47.695Z,100.00
2022-08-26T05:24:15.359Z,100.00
2022-08-26T05:26:44.594Z,100.00
2022-08-26T05:29:14.035Z,100.00
2022-08-26T05:31:42.981Z,100.00
2022-08-26T05:34:10.562Z,100.00
2022-08-26T05:36:38.811Z,100.00
2022-08-26T05:39:07.722Z,100.00
2022-08-26T05:41:41.015Z,100.00
2022-08-26T05:44:11.374Z,100.00
2022-08-26T05:46:41.590Z,100.00
2022-08-26T05:49:12.435Z,100.00
2022-08-26T05:51:41.796Z,100.00
2022-08-26T05:54:10.427Z,97.68
2022-08-26T05:56:38.614Z,98.33
2022-08-26T05:59:14.097Z,96.40
2022-08-26T06:01:45.092Z,89.40
2022-08-26T06:04:13.057Z,86.88
2022-08-26T06:06:41.443Z,88.31
2022-08-26T06:09:10.907Z,86.77
2022-08-26T06:11:39.649Z,84.50
2022-08-26T06:14:08.986Z,86.06
2022-08-26T06:16:40.866Z,79.60
2022-08-26T06:19:11.928Z,78.97
2022-08-26T06:21:42.199Z,78.69
2022-08-26T06:24:31.091Z,77.94
2022-08-26T06:27:02.142Z,70.93
2022-08-26T06:29:31.423Z,67.49
2022-08-26T06:31:59.353Z,63.98
2022-08-26T06:34:30.532Z,60.92
2022-08-26T06:37:02.128Z,59.57
2022-08-26T06:39:31.624Z,59.97
2022-08-26T06:42:00.169Z,58.76
2022-08-26T06:44:28.617Z,58.72
2022-08-26T06:46:56.412Z,60.52
2022-08-26T06:49:26.968Z,62.29
2022-08-26T06:51:58.444Z,60.67
2022-08-26T06:54:26.495Z,59.14
2022-08-26T06:56:55.845Z,57.44
2022-08-26T06:59:23.948Z,56.79
2022-08-26T07:01:52.240Z,56.09
2022-08-26T07:04:22.319Z,58.50
2022-08-26T07:06:53.365Z,58.78
2022-08-26T07:09:23.880Z,56.50
2022-08-26T07:11:52.236Z,55.68
2022-08-26T07:14:21.857Z,54.25
2022-08-26T07:16:49.685Z,54.52
2022-08-26T07:19:30.445Z,53.40
2022-08-26T07:21:59.361Z,51.69
2022-08-26T07:24:29.127Z,49.84
2022-08-26T07:27:00.021Z,48.82
2022-08-26T07:29:28.627Z,47.59
2022-08-26T07:31:56.427Z,47.34
2022-08-26T07:34:25.032Z,45.67
2022-08-26T07:36:53.710Z,44.18
2022-08-26T07:39:23.430Z,43.39
2022-08-26T07:41:53.941Z,42.44
2022-08-26T07:44:21.472Z,43.90
2022-08-26T07:46:52.336Z,46.34
2022-08-26T07:49:21.375Z,48.93
2022-08-26T07:51:49.757Z,47.82
2022-08-26T07:54:17.731Z,46.23
2022-08-26T07:56:46.408Z,45.29
2022-08-26T07:59:16.126Z,43.74
2022-08-26T08:01:45.102Z,43.21
2022-08-26T08:04:13.092Z,41.81
2022-08-26T08:06:41.552Z,39.14
2022-08-26T08:09:12.181Z,36.23
2022-08-26T08:11:40.471Z,32.60
2022-08-26T08:14:08.267Z,31.23
2022-08-26T08:16:41.510Z,29.69
2022-08-26T08:19:13.894Z,28.73
2022-08-26T08:21:42.893Z,28.43
2022-08-26T08:24:11.562Z,28.67
2022-08-26T08:26:39.553Z,29.11
2022-08-26T08:29:08.754Z,28.96
2022-08-26T08:31:56.724Z,29.57
2022-08-26T08:34:26.484Z,28.91
2022-08-26T08:36:54.502Z,29.39
2022-08-26T08:39:22.491Z,32.50
2022-08-26T08:42:04.213Z,38.34
2022-08-26T08:44:31.971Z,37.50
2022-08-26T08:47:07.052Z,42.54
2022-08-26T08:49:35.528Z,40.91
2022-08-26T08:52:07.817Z,42.15
2022-08-26T08:54:35.356Z,40.40
2022-08-26T08:57:08.593Z,40.87
2022-08-26T08:59:41.832Z,46.64
2022-08-26T09:02:20.598Z,46.96
2022-08-26T09:04:58.782Z,43.04
2022-08-26T09:07:33.242Z,41.29
2022-08-26T09:10:18.731Z,35.85
2022-08-26T09:12:48.789Z,33.15
2022-08-26T09:15:33.125Z,30.61
2022-08-26T09:18:11.060Z,29.62
2022-08-26T09:20:49.237Z,32.87
2022-08-26T09:23:18.214Z,34.27
2022-08-26T09:25:48.584Z,32.37
2022-08-26T09:28:18.634Z,31.19
2022-08-26T09:30:47.801Z,31.81
2022-08-26T09:33:19.239Z,30.95
2022-08-26T09:35:48.785Z,34.38
2022-08-26T09:38:28.864Z,36.55
2022-08-26T09:41:03.670Z,34.67
2022-08-26T09:43:32.950Z,32.65
2022-08-26T09:46:13.366Z,32.48
2022-08-26T09:48:43.479Z,31.48
2022-08-26T09:51:28.316Z,31.64
2022-08-26T09:53:58.645Z,36.29
2022-08-26T09:56:29.884Z,42.50
2022-08-26T09:58:58.508Z,42.43
2022-08-26T10:01:31.339Z,44.97
2022-08-26T10:04:11.114Z,48.06
2022-08-26T10:06:42.737Z,47.23
2022-08-26T10:09:14.764Z,50.94
2022-08-26T10:11:47.287Z,53.51
2022-08-26T10:14:20.365Z,54.38
2022-08-26T10:16:53.621Z,57.20
2022-08-26T10:19:41.674Z,60.82
2022-08-26T10:22:19.439Z,59.98
2022-08-26T10:24:54.956Z,62.18
2022-08-26T10:27:28.575Z,59.25
2022-08-26T10:30:05.004Z,55.85
2022-08-26T10:32:41.498Z,58.17
2022-08-26T10:35:14.412Z,56.70
2022-08-26T10:37:46.696Z,55.15
2022-08-26T10:40:24.012Z,54.81
2022-08-26T10:42:56.346Z,62.68
2022-08-26T10:45:27.467Z,66.53
2022-08-26T10:48:01.244Z,86.35
2022-08-26T10:50:33.675Z,100.00
2022-08-26T10:53:06.397Z,100.00
2022-08-26T10:55:44.143Z,100.00
2022-08-26T10:58:29.187Z,100.00
2022-08-26T11:01:31.539Z,100.00
2022-08-26T11:04:08.613Z,100.00
2022-08-26T11:06:37.709Z,100.00
2022-08-26T11:09:07.452Z,100.00
2022-08-26T11:12:02.905Z,100.00
2022-08-26T11:14:53.263Z,100.00
2022-08-26T11:17:56.879Z,100.00
2022-08-26T11:20:37.540Z,100.00
2022-08-26T11:23:38.964Z,100.00
2022-08-26T11:26:35.915Z,100.00
2022-08-26T11:29:04.729Z,100.00
2022-08-26T11:31:55.570Z,100.00
2022-08-26T11:34:55.008Z,100.00
2022-08-26T11:37:30.655Z,100.00
2022-08-26T11:40:02.935Z,100.00
2022-08-26T11:42:40.491Z,100.00
2022-08-26T11:45:19.278Z,100.00
2022-08-26T11:47:49.356Z,100.00
2022-08-26T11:50:21.432Z,100.00
2022-08-26T11:53:01.612Z,100.00
2022-08-26T11:55:30.235Z,100.00
2022-08-26T11:58:01.816Z,100.00
2022-08-26T12:00:38.411Z,100.00
2022-08-26T12:03:19.023Z,100.00
2022-08-26T12:05:49.110Z,100.00
2022-08-26T12:08:19.416Z,100.00
2022-08-26T12:10:48.202Z,100.00
2022-08-26T12:13:25.038Z,100.00
2022-08-26T12:15:56.328Z,100.00
2022-08-26T12:18:29.342Z,100.00
2022-08-26T12:21:00.910Z,100.00
2022-08-26T12:23:43.809Z,100.00
2022-08-26T12:26:19.275Z,100.00
2022-08-26T12:28:51.501Z,100.00
2022-08-26T12:31:27.496Z,100.00
2022-08-26T12:33:58.969Z,100.00
2022-08-26T12:36:31.332Z,100.00
2022-08-26T12:39:07.745Z,100.00
2022-08-26T12:41:50.424Z,100.00
2022-08-26T12:44:54.076Z,100.00
2022-08-26T12:47:42.365Z,100.00
2022-08-26T12:50:18.429Z,100.00
2022-08-26T12:52:57.200Z,100.00
2022-08-26T12:55:27.641Z,100.00
2022-08-26T12:58:10.627Z,100.00
2022-08-26T13:00:41.620Z,100.00
2022-08-26T13:03:38.347Z,100.00
2022-08-26T13:06:29.650Z,100.00
2022-08-26T13:08:59.468Z,100.00
2022-08-26T13:11:29.495Z,100.00
2022-08-26T13:13:59.440Z,100.00
2022-08-26T13:16:28.797Z,100.00
2022-08-26T13:18:59.720Z,100.00
2022-08-26T13:21:29.493Z,100.00
2022-08-26T13:24:05.916Z,100.00
2022-08-26T13:26:35.077Z,100.00
2022-08-26T13:29:05.308Z,100.00
2022-08-26T13:31:37.696Z,100.00
2022-08-26T13:34:05.380Z,100.00
2022-08-26T13:36:32.911Z,100.00
2022-08-26T13:39:00.675Z,100.00
2022-08-26T13:41:29.519Z,100.00
2022-08-26T13:43:58.841Z,100.00
2022-08-26T13:46:27.678Z,100.00
2022-08-26T13:48:56.911Z,100.00
2022-08-26T13:51:25.038Z,100.00
2022-08-26T13:53:53.351Z,100.00
2022-08-26T13:56:21.378Z,100.00
2022-08-26T13:58:49.472Z,100.00
2022-08-26T14:01:18.341Z,100.00
2022-08-26T14:03:46.979Z,100.00
2022-08-26T14:06:16.128Z,100.00
2022-08-26T14:08:44.018Z,100.00
2022-08-26T14:11:11.697Z,100.00
2022-08-26T14:13:39.380Z,100.00
2022-08-26T14:16:11.062Z,100.00
2022-08-26T14:18:47.325Z,100.00
2022-08-26T14:21:19.403Z,100.00
2022-08-26T14:23:47.037Z,100.00
2022-08-26T14:26:28.242Z,100.00
2022-08-26T14:28:56.888Z,100.00
2022-08-26T14:31:24.506Z,100.00
2022-08-26T14:33:52.141Z,100.00
2022-08-26T14:36:31.920Z,100.00
2022-08-26T14:39:01.891Z,100.00
2022-08-26T14:41:31.544Z,100.00
2022-08-26T14:44:02.941Z,100.00
2022-08-26T14:46:32.679Z,100.00
2022-08-26T14:49:05.212Z,100.00
2022-08-26T14:51:36.236Z,100.00
2022-08-26T14:54:11.678Z,100.00
2022-08-26T14:56:43.377Z,100.00
2022-08-26T14:59:11.426Z,100.00
2022-08-26T15:01:39.025Z,100.00
2022-08-26T15:04:06.673Z,100.00
2022-08-26T15:06:36.856Z,100.00
2022-08-26T15:09:05.655Z,100.00
2022-08-26T15:11:33.186Z,100.00
2022-08-26T15:14:00.859Z,100.00
2022-08-26T15:20:10.383Z,97.56
2022-08-26T15:22:42.326Z,94.64
2022-08-26T15:25:10.737Z,91.94
2022-08-26T15:27:38.494Z,89.87
2022-08-26T15:30:10.040Z,98.91
2022-08-26T15:32:37.595Z,100.00
2022-08-26T15:38:53.360Z,100.00
2022-08-26T15:41:21.590Z,99.51
2022-08-26T15:43:49.144Z,91.59
2022-08-26T15:46:16.681Z,97.72
2022-08-26T15:48:44.737Z,91.12
2022-08-26T15:51:23.718Z,85.45
2022-08-26T15:53:55.325Z,87.44
2022-08-26T15:56:25.821Z,83.54
2022-08-26T15:58:54.992Z,81.53
2022-08-26T16:01:27.382Z,80.37
2022-08-26T16:03:56.575Z,89.97
2022-08-26T16:06:27.327Z,100.00
2022-08-26T16:08:57.188Z,100.00
2022-08-26T16:11:24.916Z,100.00
2022-08-26T16:13:52.738Z,100.00
2022-08-26T16:16:21.433Z,100.00
2022-08-26T16:18:49.529Z,100.00
2022-08-26T16:21:19.313Z,100.00
2022-08-26T16:23:48.140Z,100.00
2022-08-26T16:26:19.672Z,100.00
2022-08-26T16:28:47.518Z,100.00
2022-08-26T16:31:15.836Z,100.00
2022-08-26T16:33:43.388Z,100.00
2022-08-26T16:36:12.192Z,100.00
2022-08-26T16:38:41.064Z,100.00
2022-08-26T16:41:09.171Z,100.00
2022-08-26T16:43:38.051Z,100.00
2022-08-26T16:46:06.823Z,100.00
2022-08-26T16:48:34.621Z,100.00
2022-08-26T16:51:02.123Z,100.00
2022-08-26T16:53:29.730Z,100.00
2022-08-26T16:55:57.220Z,100.00
2022-08-26T16:58:24.703Z,100.00
2022-08-26T17:00:53.515Z,100.00
2022-08-26T17:03:21.015Z,100.00
2022-08-26T17:05:48.524Z,100.00
2022-08-26T17:08:28.745Z,100.00
2022-08-26T17:10:57.049Z,100.00
2022-08-26T17:13:35.459Z,100.00
2022-08-26T17:16:07.324Z,100.00
2022-08-26T17:18:35.636Z,100.00
2022-08-26T17:21:05.278Z,100.00
2022-08-26T17:23:32.800Z,100.00
2022-08-26T17:26:00.342Z,100.00
2022-08-26T17:28:27.839Z,100.00
2022-08-26T17:30:56.931Z,100.00
2022-08-26T17:33:27.557Z,100.00
2022-08-26T17:35:56.157Z,100.00
2022-08-26T17:38:24.460Z,100.00
2022-08-26T17:40:52.818Z,100.00
2022-08-26T17:43:20.586Z,100.00
2022-08-26T17:45:48.165Z,100.00
2022-08-26T17:48:17.199Z,100.00
2022-08-26T17:50:49.550Z,100.00
2022-08-26T17:53:18.724Z,100.00
2022-08-26T17:55:47.259Z,100.00
2022-08-26T17:58:15.105Z,100.00
2022-08-26T18:00:44.690Z,100.00
2022-08-26T18:03:12.275Z,100.00
2022-08-26T18:05:40.164Z,100.00
2022-08-26T18:08:09.303Z,100.00
2022-08-26T18:10:36.793Z,100.00
2022-08-26T18:13:04.300Z,100.00
2022-08-26T18:15:31.835Z,100.00
2022-08-26T18:17:59.327Z,100.00
2022-08-26T18:20:27.287Z,100.00
2022-08-26T18:22:54.895Z,100.00
2022-08-26T18:25:23.868Z,100.00
2022-08-26T18:27:51.348Z,100.00
2022-08-26T18:30:23.992Z,100.00
2022-08-26T18:32:52.694Z,100.00
2022-08-26T18:35:21.252Z,100.00
2022-08-26T18:37:49.148Z,100.00
2022-08-26T18:40:16.995Z,100.00
2022-08-26T18:42:45.975Z,100.00
2022-08-26T18:45:17.604Z,100.00
2022-08-26T18:47:45.117Z,100.00
2022-08-26T18:50:12.806Z,100.00
2022-08-26T18:52:40.373Z,100.00
2022-08-26T18:55:08.200Z,100.00
2022-08-26T18:57:35.745Z,100.00
2022-08-26T19:00:06.528Z,100.00
2022-08-26T19:02:34.586Z,100.00
2022-08-26T19:05:02.540Z,100.00
2022-08-26T19:07:30.052Z,100.00
2022-08-26T19:09:57.848Z,100.00
2022-08-26T19:12:26.997Z,100.00
2022-08-26T19:14:54.623Z,100.00
2022-08-26T19:17:23.435Z,100.00
2022-08-26T19:19:53.463Z,100.00
2022-08-26T19:22:22.063Z,100.00
2022-08-26T19:24:49.544Z,100.00
2022-08-26T19:27:17.073Z,100.00
2022-08-26T19:29:44.583Z,100.00
2022-08-26T19:32:12.724Z,100.00
2022-08-26T19:34:41.573Z,100.00
2022-08-26T19:37:09.243Z,100.00
2022-08-26T19:39:37.420Z,100.00
2022-08-26T19:42:05.335Z,100.00
2022-08-26T19:44:50.545Z,100.00
2022-08-26T19:47:18.118Z,100.00
2022-08-26T19:49:47.039Z,100.00
2022-08-26T19:52:14.836Z,100.00
2022-08-26T19:54:42.381Z,100.00
2022-08-26T19:57:10.248Z,100.00
2022-08-26T19:59:40.150Z,100.00
2022-08-26T20:02:11.025Z,100.00
2022-08-26T20:04:39.670Z,100.00
2022-08-26T20:07:09.723Z,100.00
2022-08-26T20:09:38.271Z,100.00
2022-08-26T20:12:07.681Z,100.00
2022-08-26T20:14:36.036Z,100.00
2022-08-26T20:17:04.193Z,100.00
2022-08-26T20:19:49.624Z,100.00
2022-08-26T20:22:18.927Z,100.00
2022-08-26T20:24:46.815Z,100.00
2022-08-26T20:27:15.351Z,100.00
2022-08-26T20:29:43.184Z,100.00
2022-08-26T20:32:11.929Z,100.00
2022-08-26T20:34:39.650Z,100.00
2022-08-26T20:37:08.338Z,100.00
2022-08-26T20:39:37.332Z,100.00
2022-08-26T20:42:06.635Z,100.00
2022-08-26T20:44:54.387Z,100.00
2022-08-26T20:47:23.091Z,100.00
2022-08-26T20:49:52.359Z,100.00
2022-08-26T20:52:20.732Z,100.00
2022-08-26T20:54:49.572Z,100.00
2022-08-26T20:57:17.120Z,100.00
2022-08-26T20:59:44.637Z,100.00
2022-08-26T21:02:12.099Z,100.00
2022-08-26T21:04:40.326Z,100.00
2022-08-26T21:07:07.869Z,100.00
2022-08-26T21:09:35.371Z,100.00
2022-08-26T21:12:04.773Z,100.00
2022-08-26T21:14:32.300Z,100.00
2022-08-26T21:16:59.822Z,100.00
2022-08-26T21:19:27.564Z,100.00
2022-08-26T21:21:55.052Z,100.00
2022-08-26T21:24:22.638Z,100.00
2022-08-26T21:26:50.172Z,100.00
2022-08-26T21:29:21.886Z,100.00
2022-08-26T21:31:49.472Z,100.00
2022-08-26T21:34:18.132Z,100.00
2022-08-26T21:36:46.114Z,100.00
2022-08-26T21:39:13.871Z,100.00
2022-08-26T21:41:42.655Z,100.00
2022-08-26T21:44:14.181Z,100.00
2022-08-26T21:46:44.400Z,100.00
2022-08-26T21:49:13.931Z,100.00
2022-08-26T21:51:43.784Z,100.00
2022-08-26T21:54:12.660Z,100.00
2022-08-26T21:56:44.140Z,100.00
2022-08-26T21:59:12.439Z,100.00
2022-08-26T22:01:39.960Z,100.00
2022-08-26T22:04:10.702Z,100.00
2022-08-26T22:06:43.180Z,100.00
2022-08-26T22:09:11.280Z,100.00
2022-08-26T22:11:38.800Z,100.00
2022-08-26T22:14:06.448Z,100.00
2022-08-26T22:16:34.079Z,100.00
2022-08-26T22:19:01.624Z,100.00
2022-08-26T22:21:30.613Z,100.00
2022-08-26T22:23:58.693Z,100.00
2022-08-26T22:26:29.598Z,100.00
2022-08-26T22:28:59.405Z,100.00
2022-08-26T22:31:37.541Z,100.00
2022-08-26T22:34:08.561Z,100.00
2022-08-26T22:36:42.878Z,100.00
2022-08-26T22:39:12.792Z,100.00
2022-08-26T22:41:40.426Z,100.00
2022-08-26T22:44:08.360Z,100.00
2022-08-26T22:46:38.332Z,100.00
2022-08-26T22:49:06.405Z,100.00
2022-08-26T22:51:34.487Z,100.00
2022-08-26T22:54:03.363Z,100.00
2022-08-26T22:56:30.886Z,100.00
2022-08-26T22:58:58.435Z,100.00
2022-08-26T23:01:26.200Z,100.00
2022-08-26T23:03:53.814Z,100.00
2022-08-26T23:06:21.349Z,100.00
2022-08-26T23:08:49.330Z,100.00
2022-08-26T23:11:19.008Z,100.00
2022-08-26T23:13:46.570Z,100.00
2022-08-26T23:16:14.448Z,100.00
2022-08-26T23:18:42.355Z,100.00
2022-08-26T23:21:10.516Z,100.00
2022-08-26T23:23:38.875Z,100.00
2022-08-26T23:26:07.681Z,100.00
2022-08-26T23:28:37.069Z,100.00
2022-08-26T23:31:05.165Z,100.00
2022-08-26T23:33:46.620Z,100.00
2022-08-26T23:36:17.785Z,100.00
2022-08-26T23:38:47.669Z,100.00
2022-08-26T23:41:20.520Z,100.00
2022-08-26T23:43:49.599Z,100.00
2022-08-26T23:46:17.562Z,100.00
2022-08-26T23:48:45.200Z,100.00
2022-08-26T23:51:30.615Z,100.00
2022-08-26T23:53:58.464Z,100.00
2022-08-26T23:56:26.573Z,100.00
2022-08-26T23:58:56.131Z,100.00
